Time;durP1;ratioP1;P1;durP2;ratioP2;P2;SDS_P1;SDS_P2;PMS_P1;PMS_P2;Temp;Humidity;BMP_temperature;BMP_pressure;BME280_temperature;BME280_humidity;BME280_pressure;Samples;Min_cycle;Max_cycle;Signal;HPM_P1;HPM_P2
2023/11/12 00:00:13;;;;;;;11.37;2.87;;;6.20;99.90;;;;;;4100181;29;20191;-90
2023/11/12 00:02:14;;;;;;;4.57;2.40;;;6.10;99.90;;;;;;4084296;29;20629;-90
2023/11/12 00:04:14;;;;;;;4.20;2.10;;;6.10;99.90;;;;;;4084431;29;20191;-90
2023/11/12 00:06:15;;;;;;;4.13;2.17;;;6.00;99.90;;;;;;4084290;29;20183;-90
2023/11/12 00:08:18;;;;;;;6.73;2.43;;;6.00;99.90;;;;;;4099951;29;20222;-90
2023/11/12 00:10:20;;;;;;;8.67;3.67;;;5.90;99.90;;;;;;4084699;29;20246;-89
2023/11/12 00:12:22;;;;;;;4.87;2.10;;;5.90;99.90;;;;;;4084405;29;20192;-90
2023/11/12 00:14:24;;;;;;;7.23;2.10;;;6.00;99.90;;;;;;4084492;29;20265;-91
2023/11/12 00:16:24;;;;;;;5.70;2.73;;;5.90;99.90;;;;;;4084224;29;20184;-89
2023/11/12 00:18:26;;;;;;;3.63;2.13;;;5.90;99.90;;;;;;4099945;28;20199;-90
2023/11/12 00:20:28;;;;;;;3.57;2.40;;;6.00;99.90;;;;;;4084329;29;20184;-90
2023/11/12 00:22:28;;;;;;;2.90;1.83;;;5.90;99.90;;;;;;4084194;29;20296;-90
2023/11/12 00:24:29;;;;;;;6.97;2.27;;;5.80;99.90;;;;;;4102110;28;20187;-89
2023/11/12 00:26:30;;;;;;;5.40;2.03;;;5.80;99.90;;;;;;4087145;29;20556;-90
2023/11/12 00:28:31;;;;;;;8.80;4.10;;;5.80;99.90;;;;;;4102961;28;20262;-90
2023/11/12 00:30:31;;;;;;;6.77;3.43;;;5.80;99.90;;;;;;4087435;29;20576;-90
2023/11/12 00:32:32;;;;;;;4.97;2.20;;;5.70;99.90;;;;;;4102897;29;20242;-90
2023/11/12 00:34:34;;;;;;;5.17;1.87;;;5.60;99.90;;;;;;4087541;29;20183;-90
2023/11/12 00:36:36;;;;;;;6.67;2.33;;;5.60;99.90;;;;;;4102902;29;20194;-90
2023/11/12 00:38:37;;;;;;;4.67;1.73;;;5.60;99.90;;;;;;4087244;29;20200;-89
2023/11/12 00:40:37;;;;;;;5.37;2.50;;;5.60;99.90;;;;;;4103040;28;20265;-89
2023/11/12 00:42:39;;;;;;;5.87;2.50;;;5.50;99.90;;;;;;4087062;29;20227;-90
2023/11/12 00:44:40;;;;;;;10.10;2.13;;;5.40;99.90;;;;;;4087224;29;20361;-89
2023/11/12 00:46:42;;;;;;;3.77;2.47;;;5.40;99.90;;;;;;4087133;29;20189;-90
2023/11/12 00:48:44;;;;;;;4.03;1.77;;;5.50;99.90;;;;;;4086873;29;20623;-89
2023/11/12 00:50:44;;;;;;;3.03;2.30;;;5.40;99.90;;;;;;4087046;29;20215;-90
2023/11/12 00:52:45;;;;;;;5.53;2.47;;;5.50;99.90;;;;;;4086929;29;20628;-89
2023/11/12 00:54:46;;;;;;;4.53;2.10;;;5.40;99.90;;;;;;4086866;29;20188;-90
2023/11/12 00:56:47;;;;;;;3.97;2.10;;;5.40;99.90;;;;;;4102558;29;20230;-90
2023/11/12 00:58:47;;;;;;;5.10;2.20;;;5.40;99.90;;;;;;4102462;28;20721;-90
2023/11/12 01:00:48;;;;;;;4.77;2.13;;;5.30;99.90;;;;;;4102755;29;20277;-90
2023/11/12 01:02:49;;;;;;;5.57;2.63;;;5.30;99.90;;;;;;4086942;29;20183;-90
2023/11/12 01:04:50;;;;;;;8.50;2.50;;;5.20;99.90;;;;;;4102674;28;20183;-89
2023/11/12 01:06:51;;;;;;;4.33;2.23;;;5.20;99.90;;;;;;4102860;29;20214;-90
2023/11/12 01:08:51;;;;;;;5.00;2.73;;;5.20;99.90;;;;;;4102644;28;20254;-89
2023/11/12 01:10:54;;;;;;;5.77;3.27;;;5.30;99.90;;;;;;4086761;29;20230;-89
2023/11/12 01:12:55;;;;;;;6.03;2.20;;;5.30;99.90;;;;;;4102764;29;20183;-89
2023/11/12 01:14:56;;;;;;;3.27;2.10;;;5.40;99.90;;;;;;4086692;29;20180;-89
2023/11/12 01:16:57;;;;;;;4.20;2.70;;;5.40;99.90;;;;;;4102592;28;20183;-89
2023/11/12 01:19:00;;;;;;;3.30;2.33;;;5.40;99.90;;;;;;4102637;28;20683;-90
2023/11/12 01:21:04;;;;;;;4.80;2.40;;;5.50;99.90;;;;;;4086709;29;20541;-90
2023/11/12 01:23:05;;;;;;;8.23;2.87;;;5.50;99.90;;;;;;4102536;29;20181;-90
2023/11/12 01:25:07;;;;;;;5.17;2.87;;;5.60;99.90;;;;;;4086856;29;20187;-89
2023/11/12 01:27:08;;;;;;;5.40;2.67;;;5.70;99.90;;;;;;4086642;29;20207;-89
2023/11/12 01:29:10;;;;;;;6.67;2.70;;;5.80;99.90;;;;;;4086479;29;20690;-89
2023/11/12 01:31:12;;;;;;;5.33;2.63;;;5.80;99.90;;;;;;4086750;29;20176;-90
2023/11/12 01:33:14;;;;;;;5.20;2.63;;;5.70;99.90;;;;;;4086858;29;20187;-90
2023/11/12 01:35:15;;;;;;;10.30;3.30;;;5.80;99.90;;;;;;4085434;29;20287;-90
2023/11/12 01:37:15;;;;;;;3.90;2.30;;;5.80;99.90;;;;;;4086425;29;20274;-89
2023/11/12 01:39:16;;;;;;;4.07;2.27;;;5.80;99.90;;;;;;4086215;29;20231;-90
2023/11/12 01:41:17;;;;;;;6.57;2.37;;;5.80;99.90;;;;;;4086477;29;20192;-89
2023/11/12 01:43:19;;;;;;;7.40;2.33;;;5.90;99.90;;;;;;4086244;29;20679;-90
2023/11/12 01:45:19;;;;;;;4.40;2.53;;;5.90;99.90;;;;;;4102154;29;20676;-91
2023/11/12 01:47:21;;;;;;;3.80;2.50;;;5.80;99.90;;;;;;4086119;29;20278;-90
2023/11/12 01:49:22;;;;;;;8.27;2.43;;;5.80;99.90;;;;;;4102180;29;20198;-90
2023/11/12 01:51:24;;;;;;;8.03;2.47;;;5.70;99.90;;;;;;4086267;29;20180;-90
2023/11/12 01:53:26;;;;;;;3.07;1.73;;;5.70;99.90;;;;;;4086166;29;20644;-90
2023/11/12 01:55:28;;;;;;;4.47;2.20;;;5.70;99.90;;;;;;4085945;29;20270;-90
2023/11/12 01:57:31;;;;;;;6.87;2.77;;;5.60;99.90;;;;;;4085892;29;20222;-90
2023/11/12 01:59:35;;;;;;;4.20;2.50;;;5.70;99.90;;;;;;4101754;28;20183;-90
2023/11/12 02:01:36;;;;;;;5.83;2.97;;;5.70;99.90;;;;;;4101970;28;20695;-90
2023/11/12 02:03:38;;;;;;;6.00;2.73;;;5.70;99.90;;;;;;4101893;29;20303;-90
2023/11/12 02:05:39;;;;;;;7.60;3.30;;;5.80;99.90;;;;;;4101859;29;20675;-90
2023/11/12 02:07:43;;;;;;;6.17;3.27;;;6.00;99.90;;;;;;4085964;29;20628;-89
2023/11/12 02:09:44;;;;;;;9.83;4.10;;;6.10;99.90;;;;;;4101894;28;20547;-90
2023/11/12 02:11:45;;;;;;;7.97;4.07;;;6.10;99.90;;;;;;4085821;29;20199;-90
2023/11/12 02:13:46;;;;;;;9.67;3.97;;;6.40;99.90;;;;;;4101801;29;20171;-89
2023/11/12 02:15:47;;;;;;;9.97;4.07;;;6.40;99.90;;;;;;4085958;29;20568;-90
2023/11/12 02:17:48;;;;;;;10.57;4.43;;;6.50;99.90;;;;;;4101782;28;20234;-90
2023/11/12 02:19:49;;;;;;;6.80;3.03;;;6.60;99.90;;;;;;4085738;29;20244;-90
2023/11/12 02:21:50;;;;;;;4.83;2.70;;;6.60;99.90;;;;;;4085798;29;20184;-89
2023/11/12 02:23:51;;;;;;;3.33;2.03;;;6.70;99.90;;;;;;4101516;28;20189;-90
2023/11/12 02:25:52;;;;;;;6.53;2.83;;;6.50;99.90;;;;;;4101467;29;20667;-90
2023/11/12 02:27:53;;;;;;;6.10;2.47;;;6.50;99.90;;;;;;4101413;28;20223;-89
2023/11/12 02:29:54;;;;;;;5.67;2.37;;;6.70;99.90;;;;;;4085835;29;20183;-90
2023/11/12 02:31:54;;;;;;;4.67;1.90;;;6.80;99.90;;;;;;4085461;29;20196;-90
2023/11/12 02:33:55;;;;;;;4.37;2.50;;;6.80;99.90;;;;;;4085636;29;20240;-90
2023/11/12 02:35:56;;;;;;;3.47;1.93;;;6.80;99.90;;;;;;4085565;29;20680;-90
2023/11/12 02:37:57;;;;;;;5.60;2.03;;;6.70;99.90;;;;;;4085543;29;20692;-90
2023/11/12 02:39:57;;;;;;;4.43;1.90;;;6.80;99.90;;;;;;4085724;29;20181;-91
2023/11/12 02:41:59;;;;;;;4.33;2.80;;;6.90;99.90;;;;;;4101414;29;20187;-90
2023/11/12 02:43:59;;;;;;;4.23;1.67;;;7.00;99.90;;;;;;4085402;29;20194;-90
2023/11/12 02:46:00;;;;;;;4.10;1.93;;;7.00;99.90;;;;;;4101271;28;20647;-90
2023/11/12 02:48:01;;;;;;;4.30;1.93;;;7.00;99.90;;;;;;4100881;28;20215;-90
2023/11/12 02:50:05;;;;;;;4.03;2.23;;;7.10;99.90;;;;;;4085391;29;20187;-90
2023/11/12 02:52:06;;;;;;;4.83;2.57;;;7.10;99.90;;;;;;4101066;29;20182;-89
2023/11/12 02:54:07;;;;;;;5.93;2.83;;;7.10;99.90;;;;;;4085203;29;20188;-89
2023/11/12 02:56:08;;;;;;;11.40;2.95;;;7.00;99.90;;;;;;4085768;29;20222;-90
2023/11/12 02:58:10;;;;;;;23.80;2.70;;;6.90;99.90;;;;;;4101101;28;20203;-89
2023/11/12 03:00:12;;;;;;;6.43;3.15;;;6.70;99.90;;;;;;4085544;29;20183;-90
2023/11/12 03:02:13;;;;;;;5.10;2.57;;;6.70;99.90;;;;;;4101399;29;20191;-90
2023/11/12 03:04:14;;;;;;;2.67;1.67;;;6.80;99.90;;;;;;4101314;29;20179;-89
2023/11/12 03:06:15;;;;;;;10.17;1.33;;;6.80;99.90;;;;;;4101045;29;20194;-90
2023/11/12 03:08:16;;;;;;;8.27;2.60;;;6.70;99.90;;;;;;4100821;28;20679;-90
2023/11/12 03:10:17;;;;;;;4.27;2.17;;;6.40;99.90;;;;;;4085138;29;20191;-90
2023/11/12 03:12:19;;;;;;;2.30;1.77;;;6.40;99.90;;;;;;4116726;28;20253;-90
2023/11/12 03:14:21;;;;;;;3.97;2.03;;;6.60;99.90;;;;;;4100891;29;20250;-90
2023/11/12 03:16:23;;;;;;;4.33;1.83;;;6.70;99.90;;;;;;4084981;29;20235;-89
2023/11/12 03:18:24;;;;;;;5.30;2.13;;;6.80;99.90;;;;;;4084870;29;20208;-91
2023/11/12 03:20:24;;;;;;;4.30;2.70;;;6.90;99.90;;;;;;4100863;28;20178;-90
2023/11/12 03:22:26;;;;;;;3.57;1.93;;;6.90;99.90;;;;;;4100620;28;20244;-90
2023/11/12 03:24:27;;;;;;;4.93;2.10;;;6.90;99.90;;;;;;4085002;29;20176;-89
2023/11/12 03:26:28;;;;;;;4.30;2.13;;;6.70;99.90;;;;;;4100664;29;20651;-91
2023/11/12 03:28:29;;;;;;;7.35;2.75;;;6.70;99.90;;;;;;4084772;29;20215;-91
2023/11/12 03:30:29;;;;;;;4.10;2.13;;;6.70;99.90;;;;;;4100355;28;20186;-89
2023/11/12 03:32:30;;;;;;;33.73;2.67;;;6.90;99.90;;;;;;4084371;29;20231;-90
2023/11/12 03:34:32;;;;;;;6.68;2.05;;;7.00;99.90;;;;;;4100618;29;20182;-90
2023/11/12 03:36:32;;;;;;;7.27;1.73;;;6.90;99.90;;;;;;4084563;29;20218;-92
2023/11/12 03:38:33;;;;;;;3.40;2.10;;;7.00;99.90;;;;;;4101380;28;20206;-94
2023/11/12 03:40:34;;;;;;;2.37;1.60;;;7.10;99.90;;;;;;4084466;29;20192;-95
2023/11/12 03:42:35;;;;;;;3.60;1.60;;;6.80;99.90;;;;;;4100123;28;20575;-91
2023/11/12 03:44:36;;;;;;;3.00;2.07;;;6.70;99.90;;;;;;4084676;29;20556;-90
2023/11/12 03:46:37;;;;;;;3.03;1.83;;;6.80;99.90;;;;;;4084443;29;20235;-92
2023/11/12 03:48:38;;;;;;;3.80;1.70;;;6.50;99.90;;;;;;4100638;28;20675;-94
2023/11/12 03:50:39;;;;;;;4.50;1.73;;;6.30;99.90;;;;;;4100516;29;20237;-94
2023/11/12 03:52:40;;;;;;;4.33;1.60;;;6.20;99.90;;;;;;4084465;29;20724;-94
2023/11/12 03:54:41;;;;;;;5.60;1.63;;;6.20;99.90;;;;;;4100532;28;20299;-94
2023/11/12 03:56:42;;;;;;;4.80;1.53;;;6.30;99.90;;;;;;4100051;29;20559;-91
2023/11/12 03:58:43;;;;;;;3.63;1.73;;;6.20;99.90;;;;;;4083883;29;20204;-92
2023/11/12 04:00:44;;;;;;;6.40;3.13;;;6.10;99.90;;;;;;4099987;29;20182;-93
2023/11/12 04:02:45;;;;;;;6.80;1.90;;;6.20;99.90;;;;;;4084130;29;20222;-92
2023/11/12 04:04:46;;;;;;;21.17;2.00;;;6.20;99.90;;;;;;4100665;28;20771;-94
2023/11/12 04:06:46;;;;;;;6.60;2.20;;;6.40;99.90;;;;;;4099887;29;20273;-95
2023/11/12 04:08:47;;;;;;;3.23;1.83;;;6.40;99.90;;;;;;4100005;28;20211;-91
2023/11/12 04:10:48;;;;;;;4.60;1.97;;;6.50;99.90;;;;;;4100314;29;20257;-93
2023/11/12 04:12:49;;;;;;;3.50;2.13;;;6.50;99.90;;;;;;4084259;29;20190;-92
2023/11/12 04:14:50;;;;;;;5.43;2.80;;;6.60;99.90;;;;;;4100104;28;20187;-91
2023/11/12 04:16:51;;;;;;;4.33;1.80;;;6.60;99.90;;;;;;4084258;29;20249;-92
2023/11/12 04:18:53;;;;;;;3.10;1.87;;;6.60;99.90;;;;;;4099805;29;20219;-91
2023/11/12 04:20:53;;;;;;;7.17;2.00;;;6.70;99.90;;;;;;4084248;29;20283;-91
2023/11/12 04:22:55;;;;;;;2.40;1.30;;;6.60;99.90;;;;;;4084341;29;20191;-93
2023/11/12 04:24:56;;;;;;;2.83;1.73;;;6.60;99.90;;;;;;4100167;29;20179;-92
2023/11/12 04:26:57;;;;;;;4.10;1.87;;;6.60;99.90;;;;;;4100002;29;20214;-95
2023/11/12 04:28:58;;;;;;;12.50;2.53;;;6.80;99.90;;;;;;4084108;29;20207;-94
2023/11/12 04:30:59;;;;;;;2.97;1.57;;;6.90;99.90;;;;;;4100196;28;20223;-92
2023/11/12 04:33:00;;;;;;;2.10;1.37;;;6.90;99.90;;;;;;4100391;29;20201;-91
2023/11/12 04:35:01;;;;;;;10.43;2.40;;;6.90;99.90;;;;;;4084390;29;20652;-91
2023/11/12 04:37:02;;;;;;;2.83;1.33;;;6.80;99.90;;;;;;4100016;29;20230;-93
2023/11/12 04:39:03;;;;;;;4.97;1.53;;;6.90;99.90;;;;;;4099699;28;20207;-94
2023/11/12 04:41:04;;;;;;;3.80;1.93;;;6.70;99.90;;;;;;4100054;29;20192;-94
2023/11/12 04:43:05;;;;;;;3.17;1.60;;;6.90;99.90;;;;;;4099918;29;20183;-91
2023/11/12 04:45:06;;;;;;;7.03;1.40;;;6.90;99.90;;;;;;4084271;29;20204;-93
2023/11/12 04:47:07;;;;;;;3.07;1.23;;;6.70;99.90;;;;;;4099794;28;20238;-91
2023/11/12 04:49:08;;;;;;;1.83;0.93;;;6.90;99.90;;;;;;4099828;28;20301;-91
2023/11/12 04:51:10;;;;;;;3.30;1.00;;;6.90;99.90;;;;;;4083752;29;20676;-95
2023/11/12 04:53:11;;;;;;;4.60;1.60;;;7.00;99.90;;;;;;4099784;28;20658;-92
2023/11/12 04:55:12;;;;;;;1.70;1.10;;;6.90;99.90;;;;;;4099900;29;20194;-95
2023/11/12 04:57:13;;;;;;;3.03;1.40;;;7.00;99.90;;;;;;4099573;29;20187;-95
2023/11/12 04:59:15;;;;;;;3.53;1.63;;;7.10;99.90;;;;;;4083771;29;20223;-95
2023/11/12 05:01:17;;;;;;;2.93;2.00;;;7.20;99.90;;;;;;4083672;29;20233;-95
2023/11/12 05:03:17;;;;;;;1.90;1.37;;;7.10;99.90;;;;;;4083982;29;20740;-95
2023/11/12 05:05:19;;;;;;;9.47;1.67;;;7.00;99.90;;;;;;4099633;29;20175;-95
2023/11/12 05:07:19;;;;;;;6.40;2.50;;;7.00;99.90;;;;;;4083580;29;20234;-93
2023/11/12 05:09:20;;;;;;;4.32;2.05;;;7.00;99.90;;;;;;4083968;29;20235;-94
2023/11/12 05:11:21;;;;;;;3.97;2.10;;;7.00;99.90;;;;;;4086590;29;20183;-92
2023/11/12 05:13:22;;;;;;;5.53;2.37;;;7.20;99.90;;;;;;4102523;28;20297;-92
2023/11/12 05:15:23;;;;;;;6.00;2.37;;;7.20;99.90;;;;;;4102690;29;20291;-92
2023/11/12 05:17:24;;;;;;;6.00;1.73;;;7.10;99.90;;;;;;4086748;29;20191;-94
2023/11/12 05:19:25;;;;;;;4.43;1.80;;;7.10;99.90;;;;;;4102300;28;20194;-95
2023/11/12 05:21:26;;;;;;;3.77;2.37;;;7.10;99.90;;;;;;4102356;29;20191;-94
2023/11/12 05:23:27;;;;;;;3.73;2.23;;;7.20;99.90;;;;;;4086449;29;20194;-91
2023/11/12 05:25:28;;;;;;;5.70;2.83;;;7.20;99.90;;;;;;4102203;28;20548;-91
2023/11/12 05:27:29;;;;;;;4.67;2.50;;;7.30;99.90;;;;;;4086112;29;20646;-91
2023/11/12 05:29:30;;;;;;;5.20;2.63;;;7.40;99.90;;;;;;4102189;28;20175;-92
2023/11/12 05:31:34;;;;;;;4.70;2.10;;;7.40;99.90;;;;;;4086060;29;20266;-91
2023/11/12 05:33:34;;;;;;;8.60;2.57;;;7.50;99.90;;;;;;4086517;29;20770;-92
2023/11/12 05:35:35;;;;;;;5.82;2.65;;;7.40;99.90;;;;;;4102663;29;20190;-91
2023/11/12 05:37:36;;;;;;;4.10;2.13;;;7.40;99.90;;;;;;4102234;28;20178;-93
2023/11/12 05:39:37;;;;;;;11.90;2.47;;;7.60;99.90;;;;;;4086549;29;20188;-92
2023/11/12 05:41:38;;;;;;;7.40;3.50;;;7.50;99.90;;;;;;4102458;28;20190;-94
2023/11/12 05:43:39;;;;;;;4.30;2.43;;;7.50;99.90;;;;;;4102271;29;20182;-94
2023/11/12 05:45:40;;;;;;;5.05;2.60;;;7.50;99.90;;;;;;4086779;29;20184;-92
2023/11/12 05:47:40;;;;;;;3.72;2.17;;;7.50;99.90;;;;;;4102037;28;20226;-92
2023/11/12 05:49:42;;;;;;;9.93;2.97;;;7.60;99.90;;;;;;4086480;29;20179;-91
2023/11/12 05:51:43;;;;;;;5.33;2.10;;;7.50;99.90;;;;;;4086315;29;20190;-94
2023/11/12 05:53:44;;;;;;;9.93;2.83;;;7.60;99.90;;;;;;4086031;29;20191;-92
2023/11/12 05:55:44;;;;;;;4.82;2.58;;;7.70;99.90;;;;;;4085973;29;20192;-93
2023/11/12 05:57:45;;;;;;;5.07;3.05;;;7.60;99.90;;;;;;4086036;29;20250;-93
2023/11/12 05:59:46;;;;;;;4.18;2.33;;;7.70;99.90;;;;;;4102058;29;20226;-94
2023/11/12 06:01:47;;;;;;;9.02;3.42;;;7.60;99.90;;;;;;4086133;29;20225;-95
2023/11/12 06:03:47;;;;;;;7.37;3.23;;;7.50;99.90;;;;;;4085866;29;20191;-92
2023/11/12 06:05:48;;;;;;;6.40;2.97;;;7.50;99.90;;;;;;4101769;28;20190;-92
2023/11/12 06:07:49;;;;;;;4.53;2.55;;;7.60;99.90;;;;;;4085618;29;20290;-93
2023/11/12 06:09:50;;;;;;;10.50;3.13;;;7.60;99.90;;;;;;4101957;29;20194;-95
2023/11/12 06:11:53;;;;;;;6.57;2.87;;;7.50;99.90;;;;;;4101577;28;20183;-95
2023/11/12 06:13:54;;;;;;;9.35;3.05;;;7.60;99.90;;;;;;4085551;29;20183;-92
2023/11/12 06:15:55;;;;;;;5.97;3.10;;;7.50;99.90;;;;;;4101514;28;20237;-94
2023/11/12 06:17:56;;;;;;;11.67;4.63;;;7.40;99.90;;;;;;4085593;29;20617;-90
2023/11/12 06:19:56;;;;;;;8.40;3.37;;;7.40;99.90;;;;;;4085677;29;20198;-91
2023/11/12 06:21:57;;;;;;;8.18;3.67;;;7.50;99.90;;;;;;4085204;29;20172;-95
2023/11/12 06:23:58;;;;;;;5.80;3.17;;;7.50;99.90;;;;;;4085428;29;20187;-92
2023/11/12 06:25:59;;;;;;;11.63;3.65;;;7.50;99.90;;;;;;4101595;28;20175;-95
2023/11/12 06:28:00;;;;;;;6.83;2.77;;;7.60;99.90;;;;;;4101485;28;20742;-95
2023/11/12 06:30:01;;;;;;;9.50;2.93;;;7.60;99.90;;;;;;4085746;29;20460;-94
2023/11/12 06:32:02;;;;;;;8.05;3.53;;;7.50;99.90;;;;;;4101439;28;20202;-91
2023/11/12 06:34:03;;;;;;;7.18;2.55;;;7.60;99.90;;;;;;4085473;29;20247;-94
2023/11/12 06:36:04;;;;;;;7.90;3.63;;;7.40;99.90;;;;;;4085462;29;20211;-91
2023/11/12 06:38:05;;;;;;;7.57;2.97;;;7.40;99.90;;;;;;4085730;29;20252;-93
2023/11/12 06:40:06;;;;;;;5.90;2.93;;;7.40;99.90;;;;;;4085322;29;20188;-95
2023/11/12 06:42:08;;;;;;;9.67;3.30;;;7.40;99.90;;;;;;4085265;29;20265;-91
2023/11/12 06:44:11;;;;;;;6.60;3.13;;;7.40;99.90;;;;;;4085387;29;20199;-94
2023/11/12 06:46:11;;;;;;;7.25;2.90;;;7.50;99.90;;;;;;4085385;29;20211;-93
2023/11/12 06:48:12;;;;;;;6.78;2.50;;;7.50;99.90;;;;;;4101064;28;20233;-91
2023/11/12 06:50:13;;;;;;;8.93;3.38;;;7.50;99.90;;;;;;4101436;29;20563;-91
2023/11/12 06:52:15;;;;;;;6.00;2.75;;;7.50;99.90;;;;;;4085589;29;20184;-90
2023/11/12 06:54:16;;;;;;;5.20;2.58;;;7.50;99.90;;;;;;4085172;29;20274;-91
2023/11/12 06:56:17;;;;;;;5.80;3.13;;;7.30;99.90;;;;;;4085579;29;20654;-94
2023/11/12 06:58:18;;;;;;;7.57;2.73;;;7.20;99.90;;;;;;4101068;29;20234;-91
2023/11/12 07:00:18;;;;;;;6.20;2.70;;;7.10;99.90;;;;;;4101217;29;20735;-90
2023/11/12 07:02:19;;;;;;;8.15;3.42;;;7.20;99.90;;;;;;4101217;29;20189;-90
2023/11/12 07:04:20;;;;;;;5.95;2.60;;;7.30;99.90;;;;;;4101183;29;20340;-92
2023/11/12 07:06:21;;;;;;;6.75;3.55;;;7.40;99.90;;;;;;4101049;29;20186;-92
2023/11/12 07:08:22;;;;;;;6.47;3.03;;;7.50;99.90;;;;;;4085095;29;20226;-91
2023/11/12 07:10:23;;;;;;;10.93;2.92;;;7.60;99.90;;;;;;4100743;28;20183;-91
2023/11/12 07:12:24;;;;;;;4.75;2.67;;;7.70;99.90;;;;;;4100900;28;20743;-90
2023/11/12 07:14:24;;;;;;;6.45;2.97;;;7.80;99.90;;;;;;4084839;29;20636;-92
2023/11/12 07:16:25;;;;;;;7.85;3.38;;;8.00;99.90;;;;;;4100606;28;20187;-94
2023/11/12 07:18:26;;;;;;;5.10;2.87;;;7.80;99.90;;;;;;4084638;29;20295;-90
2023/11/12 07:20:32;;;;;;;6.15;2.35;;;7.80;99.90;;;;;;4100907;29;20616;-93
2023/11/12 07:22:35;;;;;;;6.40;2.90;;;7.50;99.90;;;;;;4100841;28;20191;-91
2023/11/12 07:24:37;;;;;;;6.30;3.03;;;7.40;99.90;;;;;;4084920;29;20190;-92
2023/11/12 07:26:37;;;;;;;5.40;2.10;;;7.20;99.90;;;;;;4100807;29;20214;-92
2023/11/12 07:28:38;;;;;;;5.97;3.23;;;7.20;99.90;;;;;;4102521;28;20231;-93
2023/11/12 07:30:39;;;;;;;7.05;2.88;;;7.30;99.90;;;;;;4084554;29;20707;-92
2023/11/12 07:32:40;;;;;;;5.97;3.22;;;7.30;99.90;;;;;;4100144;28;20202;-92
2023/11/12 07:34:40;;;;;;;6.38;3.22;;;7.40;99.90;;;;;;4099946;29;20175;-92
2023/11/12 07:36:41;;;;;;;6.93;3.67;;;7.50;99.90;;;;;;4084698;29;20244;-92
2023/11/12 07:38:42;;;;;;;6.68;3.08;;;7.60;99.90;;;;;;4100655;29;20297;-92
2023/11/12 07:40:43;;;;;;;6.43;2.90;;;7.70;99.90;;;;;;4084979;29;20187;-96
2023/11/12 07:42:43;;;;;;;10.35;2.67;;;7.70;99.90;;;;;;4084653;29;20187;-93
2023/11/12 07:44:44;;;;;;;5.57;3.30;;;7.80;99.90;;;;;;4100900;29;20190;-93
2023/11/12 07:46:45;;;;;;;7.43;2.72;;;8.00;99.90;;;;;;4084615;29;20180;-96
2023/11/12 07:48:46;;;;;;;7.13;3.17;;;8.10;99.90;;;;;;4084820;29;20271;-95
2023/11/12 07:50:47;;;;;;;9.13;2.92;;;8.20;99.90;;;;;;4084567;29;20188;-93
2023/11/12 07:52:49;;;;;;;7.35;2.85;;;8.30;99.90;;;;;;4100058;29;20266;-93
2023/11/12 07:54:49;;;;;;;7.70;2.33;;;8.40;99.90;;;;;;4084492;29;20248;-96
2023/11/12 07:56:50;;;;;;;8.02;2.55;;;8.50;99.90;;;;;;4084443;29;20192;-93
2023/11/12 07:58:51;;;;;;;5.90;2.67;;;8.40;99.90;;;;;;4100442;28;20290;-96
2023/11/12 08:00:52;;;;;;;7.80;3.13;;;8.50;99.90;;;;;;4084642;29;20195;-96
2023/11/12 08:02:52;;;;;;;7.07;3.30;;;8.40;99.90;;;;;;4084541;29;20621;-92
2023/11/12 08:04:53;;;;;;;8.25;2.30;;;8.30;99.90;;;;;;4084931;29;20183;-93
2023/11/12 08:06:54;;;;;;;8.00;2.60;;;8.30;99.90;;;;;;4086214;29;20214;-96
2023/11/12 08:08:55;;;;;;;6.80;2.97;;;8.30;99.90;;;;;;4100474;28;20215;-96
2023/11/12 08:10:59;;;;;;;8.07;3.50;;;8.30;99.90;;;;;;4085670;29;20222;-96
2023/11/12 08:13:00;;;;;;;9.15;3.03;;;8.30;99.90;;;;;;4101387;29;20249;-96
2023/11/12 08:15:02;;;;;;;7.13;3.13;;;8.40;99.90;;;;;;4084984;29;20274;-93
2023/11/12 08:17:03;;;;;;;5.07;2.58;;;8.10;99.90;;;;;;4084556;29;20184;-96
2023/11/12 08:19:04;;;;;;;7.93;2.70;;;7.90;99.90;;;;;;4100834;28;20277;-94
2023/11/12 08:21:05;;;;;;;10.75;2.70;;;7.70;99.90;;;;;;4084673;29;20190;-92
2023/11/12 08:23:06;;;;;;;5.15;2.38;;;7.60;99.90;;;;;;4084593;29;20182;-94
2023/11/12 08:25:09;;;;;;;6.25;3.10;;;7.50;99.90;;;;;;4100466;29;20179;-96
2023/11/12 08:27:10;;;;;;;5.73;2.23;;;7.60;99.90;;;;;;4088400;29;20222;-95
2023/11/12 08:29:11;;;;;;;4.28;2.13;;;7.70;99.90;;;;;;4103466;29;20258;-95
2023/11/12 08:31:12;;;;;;;6.88;2.60;;;7.80;99.90;;;;;;4100480;29;20174;-93
2023/11/12 08:33:13;;;;;;;4.90;2.00;;;7.90;99.90;;;;;;4084820;29;20276;-96
2023/11/12 08:35:13;;;;;;;5.50;3.05;;;8.00;99.90;;;;;;4085161;29;20179;-93
2023/11/12 08:37:14;;;;;;;4.85;2.15;;;8.00;99.90;;;;;;4084200;29;20624;-94
2023/11/12 08:39:16;;;;;;;4.10;2.10;;;8.10;99.90;;;;;;4084023;29;20203;-96
2023/11/12 08:41:17;;;;;;;6.82;2.30;;;8.00;99.90;;;;;;4084258;29;20191;-92
2023/11/12 08:43:18;;;;;;;7.03;2.30;;;8.10;99.90;;;;;;4100157;29;20182;-93
2023/11/12 08:45:19;;;;;;;8.25;2.30;;;8.40;99.90;;;;;;4101728;28;20212;-94
2023/11/12 08:47:20;;;;;;;3.20;1.92;;;8.50;99.90;;;;;;4103296;28;20240;-93
2023/11/12 08:49:21;;;;;;;5.53;2.08;;;8.40;99.90;;;;;;4103124;29;20623;-95
2023/11/12 08:51:22;;;;;;;5.80;2.03;;;8.30;99.90;;;;;;4087387;29;20207;-93
2023/11/12 08:53:23;;;;;;;8.10;2.10;;;8.40;99.90;;;;;;4103262;29;20233;-93
2023/11/12 08:55:24;;;;;;;3.10;1.80;;;8.60;99.90;;;;;;4087549;29;20187;-93
2023/11/12 08:57:25;;;;;;;7.18;1.80;;;8.50;99.90;;;;;;4104156;28;20190;-92
2023/11/12 08:59:26;;;;;;;3.80;1.60;;;8.50;99.90;;;;;;4087406;29;20236;-93
2023/11/12 09:01:27;;;;;;;2.65;1.15;;;8.40;99.90;;;;;;4087062;29;20183;-94
2023/11/12 09:03:27;;;;;;;1.85;1.10;;;8.30;99.90;;;;;;4102978;28;20175;-96
2023/11/12 09:05:28;;;;;;;4.38;1.60;;;8.20;99.90;;;;;;4087270;29;20191;-94
2023/11/12 09:07:29;;;;;;;7.45;2.40;;;8.20;99.90;;;;;;4087108;29;20230;-96
2023/11/12 09:09:32;;;;;;;3.78;1.55;;;8.10;99.90;;;;;;4103113;29;20731;-96
2023/11/12 09:11:34;;;;;;;4.80;1.85;;;8.20;99.90;;;;;;4088199;29;20793;-93
2023/11/12 09:13:35;;;;;;;3.20;1.90;;;8.40;99.90;;;;;;4087096;29;20270;-94
2023/11/12 09:15:36;;;;;;;6.38;1.67;;;8.30;99.90;;;;;;4102885;29;20711;-96
2023/11/12 09:17:37;;;;;;;2.83;1.08;;;8.40;99.90;;;;;;4086954;29;20192;-96
2023/11/12 09:19:37;;;;;;;2.17;1.20;;;8.50;99.90;;;;;;4102937;29;20178;-95
2023/11/12 09:21:38;;;;;;;5.05;1.27;;;8.60;99.90;;;;;;4103625;28;20199;-95
2023/11/12 09:23:40;;;;;;;3.13;1.80;;;8.60;99.90;;;;;;4087160;29;20179;-94
2023/11/12 09:25:41;;;;;;;4.13;1.60;;;8.50;99.90;;;;;;4087259;29;20215;-96
2023/11/12 09:27:42;;;;;;;3.58;1.17;;;8.60;99.90;;;;;;4086757;29;20226;-93
2023/11/12 09:29:42;;;;;;;8.73;2.25;;;8.60;99.90;;;;;;4102936;29;20191;-93
2023/11/12 09:31:43;;;;;;;3.67;1.42;;;8.60;99.90;;;;;;4086764;29;20277;-94
2023/11/12 09:33:44;;;;;;;2.25;1.20;;;8.50;99.90;;;;;;4086409;29;20191;-93
2023/11/12 09:35:45;;;;;;;4.85;1.98;;;8.50;99.90;;;;;;4087150;29;20201;-92
2023/11/12 09:37:45;;;;;;;3.15;1.38;;;8.50;99.90;;;;;;4102533;29;20591;-94
2023/11/12 09:39:46;;;;;;;3.28;1.17;;;8.70;99.90;;;;;;4087297;29;20191;-96
2023/11/12 09:41:51;;;;;;;5.80;1.55;;;8.70;99.90;;;;;;4087060;29;20194;-95
2023/11/12 09:43:53;;;;;;;2.45;1.25;;;8.90;99.90;;;;;;4102772;29;20175;-95
2023/11/12 09:45:56;;;;;;;1.95;1.40;;;9.20;99.90;;;;;;4102778;29;20226;-94
2023/11/12 09:48:35;;;;;;;3.25;1.52;;;9.30;99.90;;;;;;4102727;28;20687;-96
2023/11/12 09:50:37;;;;;;;3.13;1.52;;;9.40;99.90;;;;;;4102420;29;20635;-94
2023/11/12 09:52:38;;;;;;;7.97;1.27;;;9.80;99.90;;;;;;4102735;29;20186;-94
2023/11/12 09:54:41;;;;;;;9.57;1.65;;;10.10;99.90;;;;;;4103107;29;20282;-96
2023/11/12 09:56:42;;;;;;;7.18;1.60;;;10.30;99.90;;;;;;4101514;28;20269;-95
2023/11/12 09:58:52;;;;;;;2.83;1.50;;;10.40;99.90;;;;;;4103185;28;20210;-95
2023/11/12 10:00:56;;;;;;;3.08;1.33;;;10.60;99.90;;;;;;4102022;29;20240;-94
2023/11/12 10:02:58;;;;;;;3.55;1.67;;;10.70;99.90;;;;;;4102266;29;20189;-94
2023/11/12 10:05:03;;;;;;;5.10;1.33;;;10.70;99.90;;;;;;4086416;29;20190;-95
2023/11/12 10:07:04;;;;;;;5.22;1.27;;;10.80;99.90;;;;;;4102709;29;20226;-93
2023/11/12 10:09:09;;;;;;;4.10;1.58;;;10.60;99.90;;;;;;4086822;29;20243;-96
2023/11/12 10:11:17;;;;;;;1.83;0.82;;;10.40;99.90;;;;;;4086220;29;20225;-94
2023/11/12 10:13:18;;;;;;;5.55;1.35;;;10.40;99.90;;;;;;4102041;29;20183;-95
2023/11/12 10:15:37;;;;;;;6.53;1.20;;;10.20;99.90;;;;;;4102416;29;20198;-95
2023/11/12 10:17:47;;;;;;;1.98;1.10;;;10.20;99.90;;;;;;4086166;29;20320;-95
2023/11/12 10:19:57;;;;;;;1.70;1.08;;;10.30;99.90;;;;;;4102152;29;20206;-92
2023/11/12 10:22:00;;;;;;;1.98;0.98;;;10.40;99.90;;;;;;4086072;29;20248;-92
2023/11/12 10:24:05;;;;;;;2.38;1.10;;;10.20;99.90;;;;;;4101886;29;20667;-94
2023/11/12 10:26:11;;;;;;;9.35;1.08;;;10.10;99.90;;;;;;4101754;29;20694;-96
2023/11/12 10:28:12;;;;;;;5.70;2.15;;;10.10;99.90;;;;;;4102101;28;20231;-95
2023/11/12 10:30:19;;;;;;;2.83;0.93;;;10.00;99.90;;;;;;4101773;29;20206;-95
2023/11/12 10:32:26;;;;;;;2.30;0.85;;;10.10;99.90;;;;;;4103145;29;20230;-96
2023/11/12 10:34:28;;;;;;;2.35;0.98;;;10.20;99.90;;;;;;4102469;29;20179;-95
2023/11/12 10:36:29;;;;;;;7.20;1.10;;;10.50;99.90;;;;;;4102056;29;20179;-94
2023/11/12 10:38:50;;;;;;;2.25;0.80;;;10.40;99.90;;;;;;4086874;29;20202;-93